Time;durP1;ratioP1;P1;durP2;ratioP2;P2;SDS_P1;SDS_P2;PMS_P1;PMS_P2;Temp;Humidity;BMP_temperature;BMP_pressure;BME280_temperature;BME280_humidity;BME280_pressure;Samples;Min_cycle;Max_cycle;Signal;HPM_P1;HPM_P2
2024/02/07 00:00:10;;;;;;;;;;;;;;;;;;342979;28;966;-80
2024/02/07 00:00:20;;;;;;;;;;;;;;;;;;343056;28;1118;-81
2024/02/07 00:00:30;;;;;;;;;;;;;;;;;;344239;28;1383;-80
2024/02/07 00:00:40;;;;;;;;;;;;;;;;;;345727;28;1317;-80
2024/02/07 00:00:51;;;;;;;;;;;;;;;;;;344642;28;1466;-80
2024/02/07 00:01:01;;;;;;;;;;;;;;;;;;345413;28;1292;-80
2024/02/07 00:01:11;;;;;;;;;;;;;;;;;;345426;28;1339;-80
2024/02/07 00:01:21;;;;;;;;;;;;;;;;;;345789;28;1033;-80
2024/02/07 00:01:32;;;;;;;;;;;;;;;;;;344136;28;1513;-80
2024/02/07 00:01:42;;;;;;;;;;;;;;;;;;346035;28;1278;-80
2024/02/07 00:01:52;;;;;;;;;;;;;;;;;;345762;28;1662;-80
2024/02/07 00:02:02;;;;;;;;;;;;;;;;;;344326;28;1085;-80
2024/02/07 00:02:13;;;;;;;;;;;;;;;;;;344027;28;1364;-80
2024/02/07 00:02:23;;;;;;;;;;;;;;;;;;344361;28;1050;-80
2024/02/07 00:02:33;;;;;;;;;;;;;;;;;;345748;28;970;-80
2024/02/07 00:02:43;;;;;;;;;;;;;;;;;;344392;28;962;-80
2024/02/07 00:02:53;;;;;;;;;;;;;;;;;;345651;28;1390;-80
2024/02/07 00:03:04;;;;;;;;;;;;;;;;;;345501;28;1186;-80
2024/02/07 00:03:14;;;;;;;;;;;;;;;;;;344431;28;1109;-80
2024/02/07 00:03:24;;;;;;;;;;;;;;;;;;344190;28;1288;-80
2024/02/07 00:03:34;;;;;;;;;;;;;;;;;;345785;28;970;-80
2024/02/07 00:03:44;;;;;;;;;;;;;;;;;;342965;28;840;-80
2024/02/07 00:03:55;;;;;;;;;;;;;;;;;;341711;28;931;-80
2024/02/07 00:04:05;;;;;;;;;;;;;;;;;;344210;28;1284;-80
2024/02/07 00:04:15;;;;;;;;;;;;;;;;;;344461;28;1307;-80
2024/02/07 00:04:26;;;;;;;;;;;;;;;;;;344159;28;1351;-80
2024/02/07 00:04:36;;;;;;;;;;;;;;;;;;344451;28;1029;-80
2024/02/07 00:04:46;;;;;;;;;;;;;;;;;;342825;28;1312;-80
2024/02/07 00:04:56;;;;;;;;;;;;;;;;;;342936;28;999;-81
2024/02/07 00:05:06;;;;;;;;;;;;;;;;;;345579;28;1331;-81
2024/02/07 00:05:17;;;;;;;;;;;;;;;;;;345735;28;1033;-80
2024/02/07 00:05:27;;;;;;;;;;;;;;;;;;344339;28;1026;-81
2024/02/07 00:05:37;;;;;;;;;;;;;;;;;;344371;28;832;-81
2024/02/07 00:05:48;;;;;;;;;;;;;;;;;;342780;28;1361;-80
2024/02/07 00:05:58;;;;;;;;;;;;;;;;;;342767;28;1123;-80
2024/02/07 00:06:10;;;;;;;;;;;;;;;;;;342172;28;1387;-80
2024/02/07 00:06:21;;;;;;;;;;;;;;;;;;341594;29;1234;-80
2024/02/07 00:06:31;;;;;;;;;;;;;;;;;;340271;29;1168;-81
2024/02/07 00:06:41;;;;;;;;;;;;;;;;;;342975;28;1204;-80
2024/02/07 00:06:51;;;;;;;;;;;;;;;;;;342935;28;955;-80
2024/02/07 00:07:01;;;;;;;;;;;;;;;;;;342995;28;1338;-80
2024/02/07 00:07:12;;;;;;;;;;;;;;;;;;343381;28;1340;-81
2024/02/07 00:07:22;;;;;;;;;;;;;;;;;;344259;28;1337;-80
2024/02/07 00:07:32;;;;;;;;;;;;;;;;;;344245;28;1050;-81
2024/02/07 00:07:44;;;;;;;;;;;;;;;;;;344467;28;839;-81
2024/02/07 00:07:55;;;;;;;;;;;;;;;;;;340229;29;1356;-80
2024/02/07 00:08:05;;;;;;;;;;;;;;;;;;341751;29;920;-81
2024/02/07 00:08:16;;;;;;;;;;;;;;;;;;341432;29;1894;-80
2024/02/07 00:08:26;;;;;;;;;;;;;;;;;;340342;29;960;-81
2024/02/07 00:08:36;;;;;;;;;;;;;;;;;;340273;29;1270;-80
2024/02/07 00:08:46;;;;;;;;;;;;;;;;;;341732;29;1464;-80
2024/02/07 00:08:56;;;;;;;;;;;;;;;;;;342937;28;943;-81
2024/02/07 00:09:07;;;;;;;;;;;;;;;;;;341606;29;1120;-80
2024/02/07 00:09:17;;;;;;;;;;;;;;;;;;340287;29;943;-81
2024/02/07 00:09:27;;;;;;;;;;;;;;;;;;340310;29;1205;-80
2024/02/07 00:09:37;;;;;;;;;;;;;;;;;;340404;29;979;-81
2024/02/07 00:09:47;;;;;;;;;;;;;;;;;;342775;28;1357;-80
2024/02/07 00:10:06;;;;;;;;;;;;;;;;;;342435;28;1371;-81
2024/02/07 00:10:16;;;;;;;;;;;;;;;;;;343012;28;1097;-80
2024/02/07 00:10:27;;;;;;;;;;;;;;;;;;344315;28;1252;-81
2024/02/07 00:10:37;;;;;;;;;;;;;;;;;;344286;28;1336;-81
2024/02/07 00:10:47;;;;;;;;;;;;;;;;;;344402;28;987;-81
2024/02/07 00:10:58;;;;;;;;;;;;;;;;;;345643;28;1394;-81
2024/02/07 00:11:08;;;;;;;;;;;;;;;;;;343042;28;1030;-81
2024/02/07 00:11:19;;;;;;;;;;;;;;;;;;342998;28;1045;-81
2024/02/07 00:11:29;;;;;;;;;;;;;;;;;;341920;28;1026;-80
2024/02/07 00:11:39;;;;;;;;;;;;;;;;;;343021;28;1064;-81
2024/02/07 00:11:49;;;;;;;;;;;;;;;;;;345696;28;1189;-81
2024/02/07 00:11:59;;;;;;;;;;;;;;;;;;348199;28;1311;-80
2024/02/07 00:12:10;;;;;;;;;;;;;;;;;;343043;28;1325;-81
2024/02/07 00:12:20;;;;;;;;;;;;;;;;;;344359;28;967;-81
2024/02/07 00:12:30;;;;;;;;;;;;;;;;;;342829;28;1319;-80
2024/02/07 00:12:40;;;;;;;;;;;;;;;;;;341574;29;1281;-81
2024/02/07 00:12:51;;;;;;;;;;;;;;;;;;342893;28;1209;-80
2024/02/07 00:13:03;;;;;;;;;;;;;;;;;;342099;28;1180;-80
2024/02/07 00:13:13;;;;;;;;;;;;;;;;;;343018;28;1078;-81
2024/02/07 00:13:23;;;;;;;;;;;;;;;;;;345675;28;1053;-80
2024/02/07 00:13:34;;;;;;;;;;;;;;;;;;345641;28;1347;-81
2024/02/07 00:13:44;;;;;;;;;;;;;;;;;;345743;28;1010;-81
2024/02/07 00:13:54;;;;;;;;;;;;;;;;;;345710;28;955;-81
2024/02/07 00:14:05;;;;;;;;;;;;;;;;;;344298;28;1245;-81
2024/02/07 00:14:15;;;;;;;;;;;;;;;;;;344236;28;1185;-80
2024/02/07 00:14:26;;;;;;;;;;;;;;;;;;344263;28;1193;-81
2024/02/07 00:14:36;;;;;;;;;;;;;;;;;;344419;28;990;-81
2024/02/07 00:14:46;;;;;;;;;;;;;;;;;;340319;29;1338;-81
2024/02/07 00:14:56;;;;;;;;;;;;;;;;;;344239;28;1213;-81
2024/02/07 00:15:07;;;;;;;;;;;;;;;;;;344403;28;864;-80
2024/02/07 00:15:17;;;;;;;;;;;;;;;;;;344001;28;1486;-80
2024/02/07 00:15:27;;;;;;;;;;;;;;;;;;344306;28;939;-80
2024/02/07 00:15:37;;;;;;;;;;;;;;;;;;344274;28;1327;-81
2024/02/07 00:15:48;;;;;;;;;;;;;;;;;;344425;28;994;-80
2024/02/07 00:15:58;;;;;;;;;;;;;;;;;;342772;28;1328;-80
2024/02/07 00:16:12;;;;;;;;;;;;;;;;;;342727;28;1525;-80
2024/02/07 00:16:22;;;;;;;;;;;;;;;;;;342840;28;1312;-80
2024/02/07 00:16:33;;;;;;;;;;;;;;;;;;343006;28;1061;-81
2024/02/07 00:16:43;;;;;;;;;;;;;;;;;;344255;28;1241;-81
2024/02/07 00:16:56;;;;;;;;;;;;;;;;;;344319;28;987;-81
2024/02/07 00:17:06;;;;;;;;;;;;;;;;;;344438;28;887;-81
2024/02/07 00:17:16;;;;;;;;;;;;;;;;;;344356;28;1021;-80
2024/02/07 00:17:26;;;;;;;;;;;;;;;;;;344424;28;971;-81
2024/02/07 00:17:37;;;;;;;;;;;;;;;;;;344209;28;1229;-81
2024/02/07 00:17:47;;;;;;;;;;;;;;;;;;344382;28;1072;-81
2024/02/07 00:17:58;;;;;;;;;;;;;;;;;;342880;28;1284;-81
2024/02/07 00:18:08;;;;;;;;;;;;;;;;;;340376;29;967;-81
2024/02/07 00:18:19;;;;;;;;;;;;;;;;;;341603;29;1045;-80
2024/02/07 00:18:29;;;;;;;;;;;;;;;;;;344360;28;1400;-81
2024/02/07 00:18:40;;;;;;;;;;;;;;;;;;344285;28;1213;-80
2024/02/07 00:18:50;;;;;;;;;;;;;;;;;;343015;28;982;-81
2024/02/07 00:19:01;;;;;;;;;;;;;;;;;;342868;28;1280;-80
2024/02/07 00:19:11;;;;;;;;;;;;;;;;;;341577;29;1185;-80
2024/02/07 00:19:21;;;;;;;;;;;;;;;;;;341757;29;1007;-81
2024/02/07 00:19:31;;;;;;;;;;;;;;;;;;340856;29;806;-80
2024/02/07 00:19:41;;;;;;;;;;;;;;;;;;341565;29;1213;-80
2024/02/07 00:19:51;;;;;;;;;;;;;;;;;;341692;29;903;-80
2024/02/07 00:20:02;;;;;;;;;;;;;;;;;;341701;29;904;-81
2024/02/07 00:20:12;;;;;;;;;;;;;;;;;;341597;29;1096;-80
2024/02/07 00:20:23;;;;;;;;;;;;;;;;;;343392;28;1423;-81
2024/02/07 00:20:33;;;;;;;;;;;;;;;;;;344223;28;1331;-81
2024/02/07 00:20:43;;;;;;;;;;;;;;;;;;344374;28;927;-81
2024/02/07 00:20:54;;;;;;;;;;;;;;;;;;344287;28;1217;-80
2024/02/07 00:21:04;;;;;;;;;;;;;;;;;;340244;29;1263;-81
2024/02/07 00:21:14;;;;;;;;;;;;;;;;;;341500;29;1190;-81
2024/02/07 00:21:25;;;;;;;;;;;;;;;;;;340695;29;1536;-80
2024/02/07 00:21:35;;;;;;;;;;;;;;;;;;341527;29;1503;-81
2024/02/07 00:21:45;;;;;;;;;;;;;;;;;;343086;28;876;-81
2024/02/07 00:21:55;;;;;;;;;;;;;;;;;;341687;29;991;-81
2024/02/07 00:22:06;;;;;;;;;;;;;;;;;;341589;29;1363;-81
2024/02/07 00:22:16;;;;;;;;;;;;;;;;;;340244;29;1316;-80
2024/02/07 00:22:26;;;;;;;;;;;;;;;;;;341670;29;919;-80
2024/02/07 00:22:37;;;;;;;;;;;;;;;;;;342976;28;800;-81
2024/02/07 00:22:47;;;;;;;;;;;;;;;;;;342211;28;1397;-81
2024/02/07 00:22:57;;;;;;;;;;;;;;;;;;341373;28;1474;-81
2024/02/07 00:23:07;;;;;;;;;;;;;;;;;;343013;28;843;-81
2024/02/07 00:23:18;;;;;;;;;;;;;;;;;;342807;28;1348;-80
2024/02/07 00:23:28;;;;;;;;;;;;;;;;;;341747;29;823;-80
2024/02/07 00:23:38;;;;;;;;;;;;;;;;;;342840;28;1319;-80
2024/02/07 00:23:48;;;;;;;;;;;;;;;;;;341492;29;1385;-80
2024/02/07 00:23:58;;;;;;;;;;;;;;;;;;341597;29;1312;-81
2024/02/07 00:24:08;;;;;;;;;;;;;;;;;;345542;28;1503;-80
2024/02/07 00:24:19;;;;;;;;;;;;;;;;;;345409;28;1361;-81
2024/02/07 00:24:29;;;;;;;;;;;;;;;;;;345744;28;1053;-80
2024/02/07 00:24:39;;;;;;;;;;;;;;;;;;344239;28;1351;-80
2024/02/07 00:24:50;;;;;;;;;;;;;;;;;;344307;28;1596;-81
2024/02/07 00:25:00;;;;;;;;;;;;;;;;;;344237;28;1398;-80
2024/02/07 00:25:10;;;;;;;;;;;;;;;;;;344430;28;994;-80
2024/02/07 00:25:20;;;;;;;;;;;;;;;;;;344287;28;1005;-80
2024/02/07 00:25:30;;;;;;;;;;;;;;;;;;342931;28;891;-80
2024/02/07 00:25:41;;;;;;;;;;;;;;;;;;344187;28;1375;-80
2024/02/07 00:25:52;;;;;;;;;;;;;;;;;;344315;28;848;-81
2024/02/07 00:26:02;;;;;;;;;;;;;;;;;;344141;28;1030;-80
2024/02/07 00:26:12;;;;;;;;;;;;;;;;;;342877;28;1423;-81
2024/02/07 00:26:23;;;;;;;;;;;;;;;;;;341663;29;1026;-80
2024/02/07 00:26:38;;;;;;;;;;;;;;;;;;342968;28;1165;-80
2024/02/07 00:26:49;;;;;;;;;;;;;;;;;;342983;28;1038;-81
2024/02/07 00:26:59;;;;;;;;;;;;;;;;;;344342;28;962;-80
2024/02/07 00:27:09;;;;;;;;;;;;;;;;;;345621;28;1030;-81
2024/02/07 00:27:19;;;;;;;;;;;;;;;;;;342958;28;1150;-80
2024/02/07 00:27:30;;;;;;;;;;;;;;;;;;344172;28;1454;-81
2024/02/07 00:27:40;;;;;;;;;;;;;;;;;;343422;28;1209;-80
2024/02/07 00:27:50;;;;;;;;;;;;;;;;;;342985;28;1452;-81
2024/02/07 00:28:00;;;;;;;;;;;;;;;;;;343066;28;1027;-81
2024/02/07 00:28:10;;;;;;;;;;;;;;;;;;342895;28;1054;-81
2024/02/07 00:28:21;;;;;;;;;;;;;;;;;;342911;28;1960;-81
2024/02/07 00:28:31;;;;;;;;;;;;;;;;;;344190;28;1344;-81
2024/02/07 00:28:41;;;;;;;;;;;;;;;;;;344288;28;1215;-81
2024/02/07 00:28:51;;;;;;;;;;;;;;;;;;345590;28;1198;-81
2024/02/07 00:29:02;;;;;;;;;;;;;;;;;;345649;28;1521;-81
2024/02/07 00:29:12;;;;;;;;;;;;;;;;;;342857;28;998;-81
2024/02/07 00:29:22;;;;;;;;;;;;;;;;;;342798;28;1451;-80
2024/02/07 00:29:32;;;;;;;;;;;;;;;;;;342904;28;1197;-80
2024/02/07 00:29:43;;;;;;;;;;;;;;;;;;341651;29;1043;-81
2024/02/07 00:29:53;;;;;;;;;;;;;;;;;;341642;29;991;-81
2024/02/07 00:30:05;;;;;;;;;;;;;;;;;;341671;29;971;-81
2024/02/07 00:30:15;;;;;;;;;;;;;;;;;;341537;29;1170;-81
2024/02/07 00:30:25;;;;;;;;;;;;;;;;;;341731;29;833;-81
2024/02/07 00:30:35;;;;;;;;;;;;;;;;;;342936;28;1498;-80
2024/02/07 00:30:46;;;;;;;;;;;;;;;;;;344359;28;808;-81
2024/02/07 00:30:56;;;;;;;;;;;;;;;;;;344065;28;982;-81
2024/02/07 00:31:07;;;;;;;;;;;;;;;;;;344269;28;1516;-80
2024/02/07 00:31:17;;;;;;;;;;;;;;;;;;341631;29;1073;-80
2024/02/07 00:31:27;;;;;;;;;;;;;;;;;;344257;28;1325;-80
2024/02/07 00:31:37;;;;;;;;;;;;;;;;;;344438;28;859;-81
2024/02/07 00:31:47;;;;;;;;;;;;;;;;;;344363;28;1022;-80
2024/02/07 00:31:58;;;;;;;;;;;;;;;;;;345633;28;990;-81
2024/02/07 00:32:08;;;;;;;;;;;;;;;;;;344371;28;947;-81
2024/02/07 00:32:18;;;;;;;;;;;;;;;;;;345648;28;1334;-80
2024/02/07 00:32:28;;;;;;;;;;;;;;;;;;342361;28;1495;-81
2024/02/07 00:32:38;;;;;;;;;;;;;;;;;;344312;28;1200;-80
2024/02/07 00:32:49;;;;;;;;;;;;;;;;;;344253;28;1509;-81
2024/02/07 00:32:59;;;;;;;;;;;;;;;;;;344400;28;1042;-81
2024/02/07 00:33:09;;;;;;;;;;;;;;;;;;344307;28;1044;-81
2024/02/07 00:33:19;;;;;;;;;;;;;;;;;;343406;28;1461;-81
2024/02/07 00:33:30;;;;;;;;;;;;;;;;;;344160;28;1430;-81
2024/02/07 00:33:40;;;;;;;;;;;;;;;;;;343023;28;795;-81
2024/02/07 00:33:51;;;;;;;;;;;;;;;;;;342606;28;1317;-81
2024/02/07 00:34:01;;;;;;;;;;;;;;;;;;341723;29;1331;-81
2024/02/07 00:34:11;;;;;;;;;;;;;;;;;;341469;29;1397;-80
2024/02/07 00:34:22;;;;;;;;;;;;;;;;;;341714;29;1118;-81
2024/02/07 00:34:33;;;;;;;;;;;;;;;;;;340325;29;1073;-81
2024/02/07 00:34:43;;;;;;;;;;;;;;;;;;340398;29;967;-81
2024/02/07 00:34:53;;;;;;;;;;;;;;;;;;341553;29;1210;-81
2024/02/07 00:35:04;;;;;;;;;;;;;;;;;;342992;28;1025;-81
2024/02/07 00:35:14;;;;;;;;;;;;;;;;;;342992;28;1373;-81
2024/02/07 00:35:24;;;;;;;;;;;;;;;;;;342926;28;1018;-81
2024/02/07 00:35:34;;;;;;;;;;;;;;;;;;343720;28;1401;-81
2024/02/07 00:35:44;;;;;;;;;;;;;;;;;;341563;29;964;-81
2024/02/07 00:35:55;;;;;;;;;;;;;;;;;;341633;29;909;-81
2024/02/07 00:36:05;;;;;;;;;;;;;;;;;;344188;28;1367;-80
2024/02/07 00:36:15;;;;;;;;;;;;;;;;;;343022;28;1714;-81
2024/02/07 00:36:25;;;;;;;;;;;;;;;;;;344378;28;1363;-80
2024/02/07 00:36:36;;;;;;;;;;;;;;;;;;345745;28;1050;-80
2024/02/07 00:36:46;;;;;;;;;;;;;;;;;;341609;29;1410;-81
2024/02/07 00:36:56;;;;;;;;;;;;;;;;;;342986;28;927;-80
2024/02/07 00:37:06;;;;;;;;;;;;;;;;;;343074;28;954;-81
2024/02/07 00:37:17;;;;;;;;;;;;;;;;;;344214;28;1032;-81
2024/02/07 00:37:27;;;;;;;;;;;;;;;;;;343038;28;994;-81
2024/02/07 00:37:37;;;;;;;;;;;;;;;;;;344226;28;1521;-81
2024/02/07 00:37:48;;;;;;;;;;;;;;;;;;344362;28;1010;-80
2024/02/07 00:37:58;;;;;;;;;;;;;;;;;;344289;28;1296;-81
2024/02/07 00:38:08;;;;;;;;;;;;;;;;;;344223;28;1571;-80
2024/02/07 00:38:18;;;;;;;;;;;;;;;;;;344409;28;927;-81
2024/02/07 00:38:30;;;;;;;;;;;;;;;;;;344380;28;982;-81
2024/02/07 00:38:40;;;;;;;;;;;;;;;;;;344266;28;990;-81
2024/02/07 00:38:50;;;;;;;;;;;;;;;;;;341632;28;947;-81
2024/02/07 00:39:02;;;;;;;;;;;;;;;;;;341558;29;856;-80
2024/02/07 00:39:12;;;;;;;;;;;;;;;;;;341674;29;1022;-80
2024/02/07 00:39:23;;;;;;;;;;;;;;;;;;341552;29;975;-80
2024/02/07 00:39:36;;;;;;;;;;;;;;;;;;342968;28;1431;-81
2024/02/07 00:39:46;;;;;;;;;;;;;;;;;;344278;28;1021;-81
2024/02/07 00:39:56;;;;;;;;;;;;;;;;;;344388;28;950;-81
2024/02/07 00:40:07;;;;;;;;;;;;;;;;;;342906;28;1313;-81
2024/02/07 00:40:17;;;;;;;;;;;;;;;;;;341619;29;1392;-81
2024/02/07 00:40:29;;;;;;;;;;;;;;;;;;340098;29;1200;-81
2024/02/07 00:40:42;;;;;;;;;;;;;;;;;;341602;29;1035;-80
2024/02/07 00:40:52;;;;;;;;;;;;;;;;;;341512;29;1332;-81
2024/02/07 00:41:02;;;;;;;;;;;;;;;;;;342946;28;1205;-80
2024/02/07 00:41:22;;;;;;;;;;;;;;;;;;344280;28;1189;-80
2024/02/07 00:41:32;;;;;;;;;;;;;;;;;;342811;28;1407;-80
2024/02/07 00:41:42;;;;;;;;;;;;;;;;;;342994;28;1038;-81
2024/02/07 00:41:52;;;;;;;;;;;;;;;;;;341560;29;1203;-81
2024/02/07 00:42:03;;;;;;;;;;;;;;;;;;342988;28;982;-81
2024/02/07 00:42:13;;;;;;;;;;;;;;;;;;342784;28;1194;-81
2024/02/07 00:42:23;;;;;;;;;;;;;;;;;;341653;28;1030;-80
2024/02/07 00:42:34;;;;;;;;;;;;;;;;;;342813;28;1407;-81
2024/02/07 00:42:44;;;;;;;;;;;;;;;;;;343001;28;1049;-81
2024/02/07 00:42:54;;;;;;;;;;;;;;;;;;342891;28;1124;-81
2024/02/07 00:43:04;;;;;;;;;;;;;;;;;;345581;28;1213;-81
2024/02/07 00:43:15;;;;;;;;;;;;;;;;;;344229;28;1521;-81
2024/02/07 00:43:26;;;;;;;;;;;;;;;;;;342881;28;1339;-81
2024/02/07 00:43:36;;;;;;;;;;;;;;;;;;342895;28;1037;-81
2024/02/07 00:43:46;;;;;;;;;;;;;;;;;;341641;29;951;-81
2024/02/07 00:43:57;;;;;;;;;;;;;;;;;;341427;29;1373;-80
2024/02/07 00:44:07;;;;;;;;;;;;;;;;;;344333;28;935;-81
2024/02/07 00:44:17;;;;;;;;;;;;;;;;;;344207;28;1078;-80
2024/02/07 00:44:27;;;;;;;;;;;;;;;;;;344417;28;975;-80
2024/02/07 00:44:38;;;;;;;;;;;;;;;;;;344311;28;1045;-81
2024/02/07 00:44:48;;;;;;;;;;;;;;;;;;345645;28;1353;-81
2024/02/07 00:44:58;;;;;;;;;;;;;;;;;;347064;28;998;-80
2024/02/07 00:45:08;;;;;;;;;;;;;;;;;;347043;28;910;-81
2024/02/07 00:45:19;;;;;;;;;;;;;;;;;;347061;28;1033;-81
2024/02/07 00:45:29;;;;;;;;;;;;;;;;;;344303;28;1262;-80
2024/02/07 00:45:40;;;;;;;;;;;;;;;;;;341576;28;1356;-80
2024/02/07 00:45:50;;;;;;;;;;;;;;;;;;341545;29;1276;-81
2024/02/07 00:46:00;;;;;;;;;;;;;;;;;;340159;29;1356;-81
2024/02/07 00:46:10;;;;;;;;;;;;;;;;;;341578;29;1446;-81
2024/02/07 00:46:23;;;;;;;;;;;;;;;;;;341498;29;1748;-80
2024/02/07 00:46:33;;;;;;;;;;;;;;;;;;344248;28;1561;-80
2024/02/07 00:46:43;;;;;;;;;;;;;;;;;;344261;28;1348;-81
2024/02/07 00:46:53;;;;;;;;;;;;;;;;;;343895;28;1513;-81
2024/02/07 00:47:04;;;;;;;;;;;;;;;;;;341656;29;1117;-80
2024/02/07 00:47:14;;;;;;;;;;;;;;;;;;343039;28;1050;-80
2024/02/07 00:47:24;;;;;;;;;;;;;;;;;;343012;28;1065;-80
2024/02/07 00:47:34;;;;;;;;;;;;;;;;;;342653;28;1336;-80
2024/02/07 00:47:46;;;;;;;;;;;;;;;;;;345623;28;1022;-81
2024/02/07 00:47:56;;;;;;;;;;;;;;;;;;344310;28;1328;-80
2024/02/07 00:48:06;;;;;;;;;;;;;;;;;;342927;28;1615;-80
2024/02/07 00:48:17;;;;;;;;;;;;;;;;;;344241;28;1903;-80
2024/02/07 00:48:27;;;;;;;;;;;;;;;;;;342854;28;1211;-81
2024/02/07 00:48:39;;;;;;;;;;;;;;;;;;342976;28;1032;-81
2024/02/07 00:48:49;;;;;;;;;;;;;;;;;;341602;29;1374;-81
2024/02/07 00:49:02;;;;;;;;;;;;;;;;;;341360;29;1538;-81
2024/02/07 00:49:13;;;;;;;;;;;;;;;;;;341522;29;879;-81
2024/02/07 00:49:24;;;;;;;;;;;;;;;;;;341608;29;1009;-80
2024/02/07 00:49:34;;;;;;;;;;;;;;;;;;341581;29;1372;-80
2024/02/07 00:49:44;;;;;;;;;;;;;;;;;;341636;29;1193;-81
2024/02/07 00:49:54;;;;;;;;;;;;;;;;;;341676;29;847;-80
2024/02/07 00:50:05;;;;;;;;;;;;;;;;;;341615;29;958;-81
2024/02/07 00:50:15;;;;;;;;;;;;;;;;;;341504;29;1216;-80
2024/02/07 00:50:25;;;;;;;;;;;;;;;;;;341663;29;935;-80
2024/02/07 00:50:36;;;;;;;;;;;;;;;;;;342824;28;1341;-81
2024/02/07 00:50:46;;;;;;;;;;;;;;;;;;342360;28;1029;-80
2024/02/07 00:50:56;;;;;;;;;;;;;;;;;;342826;28;1328;-80
2024/02/07 00:51:07;;;;;;;;;;;;;;;;;;345510;28;1180;-81
2024/02/07 00:51:18;;;;;;;;;;;;;;;;;;344269;28;990;-81
2024/02/07 00:51:28;;;;;;;;;;;;;;;;;;344217;28;1526;-80
2024/02/07 00:51:38;;;;;;;;;;;;;;;;;;342864;28;1438;-80
2024/02/07 00:51:49;;;;;;;;;;;;;;;;;;342924;28;1225;-80
2024/02/07 00:51:59;;;;;;;;;;;;;;;;;;341568;29;1403;-80
2024/02/07 00:52:09;;;;;;;;;;;;;;;;;;340231;29;1306;-81
2024/02/07 00:52:20;;;;;;;;;;;;;;;;;;340213;29;1014;-81
2024/02/07 00:52:30;;;;;;;;;;;;;;;;;;340307;29;1022;-81
2024/02/07 00:52:40;;;;;;;;;;;;;;;;;;343835;28;1507;-81
2024/02/07 00:52:51;;;;;;;;;;;;;;;;;;344314;28;978;-81
2024/02/07 00:53:01;;;;;;;;;;;;;;;;;;345502;28;1363;-80
2024/02/07 00:53:11;;;;;;;;;;;;;;;;;;345679;28;993;-81
2024/02/07 00:53:22;;;;;;;;;;;;;;;;;;344325;28;899;-81
2024/02/07 00:53:33;;;;;;;;;;;;;;;;;;344219;28;1357;-81
2024/02/07 00:53:43;;;;;;;;;;;;;;;;;;342863;28;1022;-80
2024/02/07 00:53:53;;;;;;;;;;;;;;;;;;341585;29;1309;-81
2024/02/07 00:54:03;;;;;;;;;;;;;;;;;;342648;28;1350;-80
2024/02/07 00:54:14;;;;;;;;;;;;;;;;;;342860;28;1302;-80
2024/02/07 00:54:24;;;;;;;;;;;;;;;;;;342879;28;1450;-81
2024/02/07 00:54:34;;;;;;;;;;;;;;;;;;342856;28;1271;-81
2024/02/07 00:54:45;;;;;;;;;;;;;;;;;;344131;28;1494;-80
2024/02/07 00:54:55;;;;;;;;;;;;;;;;;;341574;28;1181;-81
2024/02/07 00:55:05;;;;;;;;;;;;;;;;;;341554;29;1443;-81
2024/02/07 00:55:16;;;;;;;;;;;;;;;;;;341584;29;976;-80
2024/02/07 00:55:26;;;;;;;;;;;;;;;;;;341525;29;1491;-81
2024/02/07 00:55:36;;;;;;;;;;;;;;;;;;341547;28;1217;-80
2024/02/07 00:55:46;;;;;;;;;;;;;;;;;;341647;29;970;-81
2024/02/07 00:55:56;;;;;;;;;;;;;;;;;;340248;29;1312;-81
2024/02/07 00:56:07;;;;;;;;;;;;;;;;;;340307;29;1014;-80
2024/02/07 00:56:17;;;;;;;;;;;;;;;;;;341414;29;1475;-81
2024/02/07 00:56:27;;;;;;;;;;;;;;;;;;344205;28;1319;-81
2024/02/07 00:56:37;;;;;;;;;;;;;;;;;;342811;28;1304;-81
2024/02/07 00:56:47;;;;;;;;;;;;;;;;;;342966;28;1278;-81
2024/02/07 00:56:58;;;;;;;;;;;;;;;;;;341590;28;1312;-81
2024/02/07 00:57:08;;;;;;;;;;;;;;;;;;345411;28;1328;-81
2024/02/07 00:57:18;;;;;;;;;;;;;;;;;;342759;28;1320;-81
2024/02/07 00:57:28;;;;;;;;;;;;;;;;;;344197;28;1189;-81
2024/02/07 00:57:39;;;;;;;;;;;;;;;;;;344185;28;1359;-80
2024/02/07 00:57:49;;;;;;;;;;;;;;;;;;341456;29;1251;-81
2024/02/07 00:57:59;;;;;;;;;;;;;;;;;;342765;28;1217;-81
2024/02/07 00:58:09;;;;;;;;;;;;;;;;;;342927;28;1320;-81
2024/02/07 00:58:20;;;;;;;;;;;;;;;;;;344211;28;970;-81
2024/02/07 00:58:30;;;;;;;;;;;;;;;;;;344338;28;1046;-81
2024/02/07 00:58:40;;;;;;;;;;;;;;;;;;342962;28;1018;-81
2024/02/07 00:58:51;;;;;;;;;;;;;;;;;;342993;28;962;-81
2024/02/07 00:59:02;;;;;;;;;;;;;;;;;;342772;28;1296;-80
2024/02/07 00:59:12;;;;;;;;;;;;;;;;;;341680;29;1072;-81
2024/02/07 00:59:22;;;;;;;;;;;;;;;;;;342151;28;1332;-80
2024/02/07 00:59:33;;;;;;;;;;;;;;;;;;341671;29;1379;-81
2024/02/07 00:59:43;;;;;;;;;;;;;;;;;;341474;29;1237;-81
2024/02/07 00:59:53;;;;;;;;;;;;;;;;;;341664;29;795;-81
2024/02/07 01:00:05;;;;;;;;;;;;;;;;;;342772;28;1180;-81
2024/02/07 01:00:15;;;;;;;;;;;;;;;;;;342967;28;1208;-81
2024/02/07 01:00:26;;;;;;;;;;;;;;;;;;340357;29;1413;-81
2024/02/07 01:00:36;;;;;;;;;;;;;;;;;;340435;29;1297;-81
2024/02/07 01:00:46;;;;;;;;;;;;;;;;;;340222;29;1185;-80
2024/02/07 01:00:56;;;;;;;;;;;;;;;;;;340396;29;1006;-81
2024/02/07 01:01:07;;;;;;;;;;;;;;;;;;340327;29;1081;-81
2024/02/07 01:01:19;;;;;;;;;;;;;;;;;;340285;29;1018;-80
2024/02/07 01:01:29;;;;;;;;;;;;;;;;;;341526;28;1053;-80
2024/02/07 01:01:39;;;;;;;;;;;;;;;;;;343015;28;950;-80
2024/02/07 01:01:50;;;;;;;;;;;;;;;;;;340199;29;1335;-81
2024/02/07 01:02:00;;;;;;;;;;;;;;;;;;342048;28;1187;-80
2024/02/07 01:02:11;;;;;;;;;;;;;;;;;;342136;28;1198;-81
2024/02/07 01:02:21;;;;;;;;;;;;;;;;;;344306;28;1374;-80
2024/02/07 01:02:31;;;;;;;;;;;;;;;;;;342820;28;878;-81
2024/02/07 01:02:42;;;;;;;;;;;;;;;;;;342921;28;1304;-81
2024/02/07 01:02:52;;;;;;;;;;;;;;;;;;342826;28;1049;-81
2024/02/07 01:03:02;;;;;;;;;;;;;;;;;;344220;28;1537;-81
2024/02/07 01:03:12;;;;;;;;;;;;;;;;;;345700;28;919;-81
2024/02/07 01:03:23;;;;;;;;;;;;;;;;;;344247;28;1426;-81
2024/02/07 01:03:34;;;;;;;;;;;;;;;;;;342856;28;1108;-81
2024/02/07 01:03:44;;;;;;;;;;;;;;;;;;344232;28;1292;-81
2024/02/07 01:03:54;;;;;;;;;;;;;;;;;;344257;28;1088;-81
2024/02/07 01:04:04;;;;;;;;;;;;;;;;;;342813;28;1277;-81
2024/02/07 01:04:15;;;;;;;;;;;;;;;;;;342905;28;931;-81
2024/02/07 01:04:25;;;;;;;;;;;;;;;;;;342977;28;1006;-81
2024/02/07 01:04:36;;;;;;;;;;;;;;;;;;341378;29;1442;-81
2024/02/07 01:04:50;;;;;;;;;;;;;;;;;;342644;28;1264;-81
2024/02/07 01:05:00;;;;;;;;;;;;;;;;;;342770;28;1238;-81
2024/02/07 01:05:10;;;;;;;;;;;;;;;;;;342922;28;1539;-81
2024/02/07 01:05:21;;;;;;;;;;;;;;;;;;342910;28;1014;-81
2024/02/07 01:05:31;;;;;;;;;;;;;;;;;;342310;28;1366;-81
2024/02/07 01:05:41;;;;;;;;;;;;;;;;;;340206;29;1301;-81
2024/02/07 01:05:52;;;;;;;;;;;;;;;;;;340374;29;931;-81
2024/02/07 01:06:02;;;;;;;;;;;;;;;;;;340861;29;1246;-81
2024/02/07 01:06:12;;;;;;;;;;;;;;;;;;341520;29;1225;-81
2024/02/07 01:06:22;;;;;;;;;;;;;;;;;;341646;29;978;-81
2024/02/07 01:06:33;;;;;;;;;;;;;;;;;;341568;29;986;-80
2024/02/07 01:06:43;;;;;;;;;;;;;;;;;;341656;29;970;-81
2024/02/07 01:06:53;;;;;;;;;;;;;;;;;;341444;28;1356;-81
2024/02/07 01:07:03;;;;;;;;;;;;;;;;;;343215;28;1327;-81
2024/02/07 01:07:14;;;;;;;;;;;;;;;;;;342932;28;1342;-81
2024/02/07 01:07:24;;;;;;;;;;;;;;;;;;343123;28;1446;-81
2024/02/07 01:07:34;;;;;;;;;;;;;;;;;;341559;28;1313;-81
2024/02/07 01:07:44;;;;;;;;;;;;;;;;;;340546;29;1368;-81
2024/02/07 01:07:55;;;;;;;;;;;;;;;;;;341703;29;1006;-81
2024/02/07 01:08:05;;;;;;;;;;;;;;;;;;341495;29;1186;-81
2024/02/07 01:08:15;;;;;;;;;;;;;;;;;;340322;29;891;-81
2024/02/07 01:08:25;;;;;;;;;;;;;;;;;;340145;29;1907;-81
2024/02/07 01:08:36;;;;;;;;;;;;;;;;;;341492;29;1106;-81
2024/02/07 01:08:46;;;;;;;;;;;;;;;;;;342953;28;997;-81
2024/02/07 01:08:57;;;;;;;;;;;;;;;;;;343000;28;982;-81
2024/02/07 01:09:08;;;;;;;;;;;;;;;;;;341040;29;1516;-81
2024/02/07 01:09:20;;;;;;;;;;;;;;;;;;340422;29;970;-81
2024/02/07 01:09:30;;;;;;;;;;;;;;;;;;342507;28;1395;-80
2024/02/07 01:09:41;;;;;;;;;;;;;;;;;;340302;29;1015;-81
2024/02/07 01:09:51;;;;;;;;;;;;;;;;;;341573;29;1573;-80
2024/02/07 01:10:01;;;;;;;;;;;;;;;;;;344261;28;1208;-81
2024/02/07 01:10:11;;;;;;;;;;;;;;;;;;344082;28;1247;-81
2024/02/07 01:10:22;;;;;;;;;;;;;;;;;;342945;28;1002;-81
2024/02/07 01:10:32;;;;;;;;;;;;;;;;;;342935;28;931;-81
2024/02/07 01:10:44;;;;;;;;;;;;;;;;;;342928;28;1058;-81
2024/02/07 01:10:54;;;;;;;;;;;;;;;;;;342870;28;974;-80
2024/02/07 01:11:04;;;;;;;;;;;;;;;;;;343058;28;1061;-80
2024/02/07 01:11:15;;;;;;;;;;;;;;;;;;342932;28;982;-80
2024/02/07 01:11:25;;;;;;;;;;;;;;;;;;341612;29;955;-81
2024/02/07 01:11:35;;;;;;;;;;;;;;;;;;340090;29;986;-80
2024/02/07 01:11:45;;;;;;;;;;;;;;;;;;341390;28;1077;-81
2024/02/07 01:11:55;;;;;;;;;;;;;;;;;;342805;28;1064;-80
2024/02/07 01:12:06;;;;;;;;;;;;;;;;;;340271;29;1491;-80
2024/02/07 01:12:16;;;;;;;;;;;;;;;;;;341548;28;991;-80
2024/02/07 01:12:26;;;;;;;;;;;;;;;;;;341600;29;1774;-81
2024/02/07 01:12:36;;;;;;;;;;;;;;;;;;343024;28;919;-81
2024/02/07 01:12:46;;;;;;;;;;;;;;;;;;341614;29;1359;-81
2024/02/07 01:12:57;;;;;;;;;;;;;;;;;;341428;29;1306;-81
2024/02/07 01:13:07;;;;;;;;;;;;;;;;;;341645;29;1172;-80
2024/02/07 01:13:17;;;;;;;;;;;;;;;;;;340418;29;943;-81
2024/02/07 01:13:28;;;;;;;;;;;;;;;;;;340354;29;1046;-81
2024/02/07 01:13:38;;;;;;;;;;;;;;;;;;340277;29;1063;-81
2024/02/07 01:13:49;;;;;;;;;;;;;;;;;;340640;29;1427;-81
2024/02/07 01:13:59;;;;;;;;;;;;;;;;;;342859;28;1161;-80
2024/02/07 01:14:09;;;;;;;;;;;;;;;;;;343003;28;1022;-81